sensor_id;sensor_type;location;lat;lon;timestamp;P1;durP1;ratioP1;P2;durP2;ratioP2
70205;SDS011;57593;55.896;37.396;2022-09-14T00:00:07;6.57;;;5.75;;
70205;SDS011;57593;55.896;37.396;2022-09-14T00:00:40;7.00;;;5.50;;
70205;SDS011;57593;55.896;37.396;2022-09-14T00:01:15;9.00;;;5.28;;
70205;SDS011;57593;55.896;37.396;2022-09-14T00:01:47;6.63;;;5.55;;
70205;SDS011;57593;55.896;37.396;2022-09-14T00:02:18;6.45;;;5.75;;
70205;SDS011;57593;55.896;37.396;2022-09-14T00:02:48;5.78;;;5.20;;
70205;SDS011;57593;55.896;37.396;2022-09-14T00:03:19;6.55;;;5.35;;
70205;SDS011;57593;55.896;37.396;2022-09-14T00:03:51;8.10;;;5.03;;
70205;SDS011;57593;55.896;37.396;2022-09-14T00:04:22;6.28;;;5.00;;
70205;SDS011;57593;55.896;37.396;2022-09-14T00:04:53;5.80;;;5.13;;
70205;SDS011;57593;55.896;37.396;2022-09-14T00:05:24;6.70;;;5.18;;
70205;SDS011;57593;55.896;37.396;2022-09-14T00:05:55;11.20;;;5.90;;
70205;SDS011;57593;55.896;37.396;2022-09-14T00:06:25;9.88;;;5.50;;
70205;SDS011;57593;55.896;37.396;2022-09-14T00:06:57;7.78;;;5.68;;
70205;SDS011;57593;55.896;37.396;2022-09-14T00:07:28;5.97;;;5.38;;
70205;SDS011;57593;55.896;37.396;2022-09-14T00:07:58;6.15;;;5.28;;
70205;SDS011;57593;55.896;37.396;2022-09-14T00:08:29;6.63;;;5.07;;
70205;SDS011;57593;55.896;37.396;2022-09-14T00:09:00;6.40;;;5.65;;
70205;SDS011;57593;55.896;37.396;2022-09-14T00:09:32;8.25;;;5.30;;
70205;SDS011;57593;55.896;37.396;2022-09-14T00:10:03;7.47;;;5.60;;
70205;SDS011;57593;55.896;37.396;2022-09-14T00:10:37;6.43;;;5.47;;
70205;SDS011;57593;55.896;37.396;2022-09-14T00:11:10;6.47;;;5.82;;
70205;SDS011;57593;55.896;37.396;2022-09-14T00:11:43;7.45;;;5.78;;
70205;SDS011;57593;55.896;37.396;2022-09-14T00:12:14;6.68;;;5.70;;
70205;SDS011;57593;55.896;37.396;2022-09-14T00:12:45;6.88;;;5.28;;
70205;SDS011;57593;55.896;37.396;2022-09-14T00:13:16;6.35;;;5.05;;
70205;SDS011;57593;55.896;37.396;2022-09-14T00:13:46;5.88;;;5.25;;
70205;SDS011;57593;55.896;37.396;2022-09-14T00:14:18;7.75;;;4.90;;
70205;SDS011;57593;55.896;37.396;2022-09-14T00:14:49;10.25;;;5.63;;
70205;SDS011;57593;55.896;37.396;2022-09-14T00:15:20;6.20;;;5.47;;
70205;SDS011;57593;55.896;37.396;2022-09-14T00:15:50;5.95;;;5.20;;
70205;SDS011;57593;55.896;37.396;2022-09-14T00:16:31;8.43;;;5.50;;
70205;SDS011;57593;55.896;37.396;2022-09-14T00:17:04;6.25;;;5.65;;
70205;SDS011;57593;55.896;37.396;2022-09-14T00:17:34;6.50;;;5.13;;
70205;SDS011;57593;55.896;37.396;2022-09-14T00:18:05;5.97;;;5.40;;
70205;SDS011;57593;55.896;37.396;2022-09-14T00:18:38;5.78;;;5.18;;
70205;SDS011;57593;55.896;37.396;2022-09-14T00:19:19;7.07;;;5.40;;
70205;SDS011;57593;55.896;37.396;2022-09-14T00:19:52;6.93;;;5.50;;
70205;SDS011;57593;55.896;37.396;2022-09-14T00:20:22;5.75;;;5.20;;
70205;SDS011;57593;55.896;37.396;2022-09-14T00:20:57;7.68;;;5.15;;
70205;SDS011;57593;55.896;37.396;2022-09-14T00:21:29;6.57;;;5.13;;
70205;SDS011;57593;55.896;37.396;2022-09-14T00:22:00;7.63;;;5.53;;
70205;SDS011;57593;55.896;37.396;2022-09-14T00:22:30;6.65;;;5.13;;
70205;SDS011;57593;55.896;37.396;2022-09-14T00:23:01;6.28;;;5.18;;
70205;SDS011;57593;55.896;37.396;2022-09-14T00:23:36;6.70;;;5.53;;
70205;SDS011;57593;55.896;37.396;2022-09-14T00:24:08;5.65;;;5.13;;
70205;SDS011;57593;55.896;37.396;2022-09-14T00:24:40;6.70;;;5.55;;
70205;SDS011;57593;55.896;37.396;2022-09-14T00:25:11;6.10;;;5.35;;
70205;SDS011;57593;55.896;37.396;2022-09-14T00:25:42;6.95;;;5.80;;
70205;SDS011;57593;55.896;37.396;2022-09-14T00:26:13;6.40;;;5.40;;
70205;SDS011;57593;55.896;37.396;2022-09-14T00:26:46;8.38;;;5.65;;
70205;SDS011;57593;55.896;37.396;2022-09-14T00:27:17;5.60;;;5.10;;
70205;SDS011;57593;55.896;37.396;2022-09-14T00:27:48;6.15;;;5.53;;
70205;SDS011;57593;55.896;37.396;2022-09-14T00:28:19;7.55;;;5.57;;
70205;SDS011;57593;55.896;37.396;2022-09-14T00:28:51;9.43;;;5.60;;
70205;SDS011;57593;55.896;37.396;2022-09-14T00:29:26;7.07;;;5.85;;
70205;SDS011;57593;55.896;37.396;2022-09-14T00:29:56;7.47;;;5.57;;
70205;SDS011;57593;55.896;37.396;2022-09-14T00:30:27;7.60;;;5.75;;
70205;SDS011;57593;55.896;37.396;2022-09-14T00:30:58;6.22;;;5.43;;
70205;SDS011;57593;55.896;37.396;2022-09-14T00:31:28;6.45;;;5.25;;
70205;SDS011;57593;55.896;37.396;2022-09-14T00:32:00;6.38;;;5.20;;
70205;SDS011;57593;55.896;37.396;2022-09-14T00:32:31;10.00;;;6.13;;
70205;SDS011;57593;55.896;37.396;2022-09-14T00:33:02;6.63;;;5.60;;
70205;SDS011;57593;55.896;37.396;2022-09-14T00:33:32;7.03;;;6.15;;
70205;SDS011;57593;55.896;37.396;2022-09-14T00:34:04;12.32;;;6.13;;
70205;SDS011;57593;55.896;37.396;2022-09-14T00:34:37;7.10;;;5.65;;
70205;SDS011;57593;55.896;37.396;2022-09-14T00:35:07;6.68;;;6.03;;
70205;SDS011;57593;55.896;37.396;2022-09-14T00:35:38;7.47;;;5.93;;
70205;SDS011;57593;55.896;37.396;2022-09-14T00:36:10;9.45;;;6.28;;
70205;SDS011;57593;55.896;37.396;2022-09-14T00:36:44;7.72;;;6.28;;
70205;SDS011;57593;55.896;37.396;2022-09-14T00:37:16;7.43;;;5.90;;
70205;SDS011;57593;55.896;37.396;2022-09-14T00:37:47;8.85;;;5.88;;
70205;SDS011;57593;55.896;37.396;2022-09-14T00:38:18;8.98;;;5.90;;
70205;SDS011;57593;55.896;37.396;2022-09-14T00:38:49;7.50;;;5.88;;
70205;SDS011;57593;55.896;37.396;2022-09-14T00:39:21;8.15;;;5.53;;
70205;SDS011;57593;55.896;37.396;2022-09-14T00:39:53;11.48;;;5.90;;
70205;SDS011;57593;55.896;37.396;2022-09-14T00:40:24;9.32;;;6.05;;
70205;SDS011;57593;55.896;37.396;2022-09-14T00:40:55;7.57;;;5.38;;
70205;SDS011;57593;55.896;37.396;2022-09-14T00:41:28;6.90;;;4.90;;
70205;SDS011;57593;55.896;37.396;2022-09-14T00:42:03;6.45;;;5.50;;
70205;SDS011;57593;55.896;37.396;2022-09-14T00:42:34;6.45;;;5.68;;
70205;SDS011;57593;55.896;37.396;2022-09-14T00:43:13;8.15;;;5.88;;
70205;SDS011;57593;55.896;37.396;2022-09-14T00:44:59;6.97;;;5.32;;
70205;SDS011;57593;55.896;37.396;2022-09-14T00:45:33;11.85;;;5.80;;
70205;SDS011;57593;55.896;37.396;2022-09-14T00:46:04;6.25;;;5.43;;
70205;SDS011;57593;55.896;37.396;2022-09-14T00:46:45;6.57;;;5.43;;
70205;SDS011;57593;55.896;37.396;2022-09-14T00:47:17;6.45;;;4.82;;
70205;SDS011;57593;55.896;37.396;2022-09-14T00:47:49;8.52;;;5.50;;
70205;SDS011;57593;55.896;37.396;2022-09-14T00:48:22;8.63;;;5.07;;
70205;SDS011;57593;55.896;37.396;2022-09-14T00:48:55;8.05;;;5.30;;
70205;SDS011;57593;55.896;37.396;2022-09-14T00:49:33;7.85;;;5.43;;
70205;SDS011;57593;55.896;37.396;2022-09-14T00:50:09;6.50;;;5.13;;
70205;SDS011;57593;55.896;37.396;2022-09-14T00:50:40;6.30;;;4.80;;
70205;SDS011;57593;55.896;37.396;2022-09-14T00:51:11;7.55;;;5.30;;
70205;SDS011;57593;55.896;37.396;2022-09-14T00:51:44;5.97;;;5.13;;
70205;SDS011;57593;55.896;37.396;2022-09-14T00:52:20;7.53;;;4.85;;
70205;SDS011;57593;55.896;37.396;2022-09-14T00:52:54;6.03;;;5.43;;
70205;SDS011;57593;55.896;37.396;2022-09-14T00:53:26;5.78;;;5.07;;
70205;SDS011;57593;55.896;37.396;2022-09-14T00:53:56;6.55;;;4.85;;
70205;SDS011;57593;55.896;37.396;2022-09-14T00:54:27;7.10;;;5.18;;
70205;SDS011;57593;55.896;37.396;2022-09-14T00:54:59;5.72;;;5.13;;
70205;SDS011;57593;55.896;37.396;2022-09-14T00:55:32;6.70;;;5.43;;
70205;SDS011;57593;55.896;37.396;2022-09-14T00:56:03;9.50;;;5.35;;
70205;SDS011;57593;55.896;37.396;2022-09-14T00:56:34;7.20;;;5.82;;
70205;SDS011;57593;55.896;37.396;2022-09-14T00:57:05;6.60;;;5.80;;
70205;SDS011;57593;55.896;37.396;2022-09-14T00:57:38;6.45;;;5.05;;
70205;SDS011;57593;55.896;37.396;2022-09-14T00:58:12;9.30;;;5.25;;
70205;SDS011;57593;55.896;37.396;2022-09-14T00:58:43;6.38;;;5.47;;
70205;SDS011;57593;55.896;37.396;2022-09-14T00:59:24;8.15;;;4.90;;
70205;SDS011;57593;55.896;37.396;2022-09-14T00:59:58;6.43;;;5.22;;
70205;SDS011;57593;55.896;37.396;2022-09-14T01:00:29;6.60;;;5.38;;
70205;SDS011;57593;55.896;37.396;2022-09-14T01:01:00;5.78;;;5.18;;
70205;SDS011;57593;55.896;37.396;2022-09-14T01:01:31;8.63;;;5.88;;
70205;SDS011;57593;55.896;37.396;2022-09-14T01:02:02;8.48;;;5.95;;
70205;SDS011;57593;55.896;37.396;2022-09-14T01:02:34;9.05;;;5.85;;
70205;SDS011;57593;55.896;37.396;2022-09-14T01:03:05;8.27;;;5.78;;
70205;SDS011;57593;55.896;37.396;2022-09-14T01:03:35;7.07;;;6.22;;
70205;SDS011;57593;55.896;37.396;2022-09-14T01:04:06;9.00;;;5.38;;
70205;SDS011;57593;55.896;37.396;2022-09-14T01:04:37;7.25;;;5.50;;
70205;SDS011;57593;55.896;37.396;2022-09-14T01:05:08;5.97;;;5.38;;
70205;SDS011;57593;55.896;37.396;2022-09-14T01:07:15;6.10;;;5.50;;
70205;SDS011;57593;55.896;37.396;2022-09-14T01:08:47;7.05;;;5.35;;
70205;SDS011;57593;55.896;37.396;2022-09-14T01:10:06;8.00;;;6.32;;
70205;SDS011;57593;55.896;37.396;2022-09-14T01:13:36;7.85;;;4.93;;
70205;SDS011;57593;55.896;37.396;2022-09-14T01:14:22;9.32;;;5.60;;
70205;SDS011;57593;55.896;37.396;2022-09-14T01:15:10;7.10;;;5.80;;
70205;SDS011;57593;55.896;37.396;2022-09-14T01:17:48;7.13;;;5.72;;
70205;SDS011;57593;55.896;37.396;2022-09-14T01:18:45;9.13;;;5.28;;
70205;SDS011;57593;55.896;37.396;2022-09-14T01:20:12;9.18;;;6.18;;
70205;SDS011;57593;55.896;37.396;2022-09-14T01:21:33;7.00;;;5.85;;
70205;SDS011;57593;55.896;37.396;2022-09-14T01:21:46;6.38;;;5.65;;
70205;SDS011;57593;55.896;37.396;2022-09-14T01:22:18;9.43;;;6.18;;
70205;SDS011;57593;55.896;37.396;2022-09-14T01:23:49;5.95;;;5.32;;
70205;SDS011;57593;55.896;37.396;2022-09-14T01:24:27;8.07;;;6.22;;
70205;SDS011;57593;55.896;37.396;2022-09-14T01:27:33;6.75;;;6.07;;
70205;SDS011;57593;55.896;37.396;2022-09-14T01:28:11;7.03;;;6.20;;
70205;SDS011;57593;55.896;37.396;2022-09-14T01:29:34;6.68;;;5.97;;
70205;SDS011;57593;55.896;37.396;2022-09-14T01:30:10;6.45;;;5.85;;
70205;SDS011;57593;55.896;37.396;2022-09-14T01:30:49;6.80;;;5.90;;
70205;SDS011;57593;55.896;37.396;2022-09-14T01:31:37;7.07;;;6.07;;
70205;SDS011;57593;55.896;37.396;2022-09-14T01:32:28;6.85;;;5.30;;
70205;SDS011;57593;55.896;37.396;2022-09-14T01:33:33;8.20;;;5.50;;
70205;SDS011;57593;55.896;37.396;2022-09-14T01:34:11;7.28;;;5.75;;
70205;SDS011;57593;55.896;37.396;2022-09-14T01:35:45;7.93;;;6.63;;
70205;SDS011;57593;55.896;37.396;2022-09-14T01:36:21;7.53;;;6.60;;
70205;SDS011;57593;55.896;37.396;2022-09-14T01:36:56;7.95;;;6.80;;
70205;SDS011;57593;55.896;37.396;2022-09-14T01:37:36;8.73;;;6.70;;
70205;SDS011;57593;55.896;37.396;2022-09-14T01:38:32;8.50;;;6.78;;
70205;SDS011;57593;55.896;37.396;2022-09-14T01:39:08;7.65;;;6.45;;
70205;SDS011;57593;55.896;37.396;2022-09-14T01:39:43;9.80;;;6.25;;
70205;SDS011;57593;55.896;37.396;2022-09-14T01:41:13;7.82;;;6.82;;
70205;SDS011;57593;55.896;37.396;2022-09-14T01:41:47;7.82;;;7.03;;
70205;SDS011;57593;55.896;37.396;2022-09-14T01:42:20;8.60;;;7.70;;
70205;SDS011;57593;55.896;37.396;2022-09-14T01:42:58;9.80;;;8.65;;
70205;SDS011;57593;55.896;37.396;2022-09-14T01:43:54;9.85;;;8.02;;
70205;SDS011;57593;55.896;37.396;2022-09-14T01:44:33;11.65;;;9.10;;
70205;SDS011;57593;55.896;37.396;2022-09-14T01:45:07;11.05;;;9.70;;
70205;SDS011;57593;55.896;37.396;2022-09-14T01:45:43;13.43;;;10.38;;
70205;SDS011;57593;55.896;37.396;2022-09-14T01:46:19;11.25;;;9.15;;
70205;SDS011;57593;55.896;37.396;2022-09-14T01:46:56;12.80;;;9.52;;
70205;SDS011;57593;55.896;37.396;2022-09-14T01:48:12;10.10;;;9.10;;
70205;SDS011;57593;55.896;37.396;2022-09-14T01:48:50;10.45;;;8.48;;
70205;SDS011;57593;55.896;37.396;2022-09-14T01:49:30;10.43;;;8.20;;
70205;SDS011;57593;55.896;37.396;2022-09-14T01:50:08;8.98;;;8.07;;
70205;SDS011;57593;55.896;37.396;2022-09-14T01:50:47;9.52;;;8.45;;
70205;SDS011;57593;55.896;37.396;2022-09-14T01:51:24;9.00;;;8.10;;
70205;SDS011;57593;55.896;37.396;2022-09-14T01:52:01;9.45;;;8.45;;
70205;SDS011;57593;55.896;37.396;2022-09-14T01:52:44;9.27;;;8.35;;
70205;SDS011;57593;55.896;37.396;2022-09-14T01:53:19;10.02;;;8.57;;
70205;SDS011;57593;55.896;37.396;2022-09-14T01:54:06;9.43;;;8.43;;
70205;SDS011;57593;55.896;37.396;2022-09-14T01:55:05;10.13;;;8.05;;
70205;SDS011;57593;55.896;37.396;2022-09-14T01:55:45;9.73;;;8.30;;
70205;SDS011;57593;55.896;37.396;2022-09-14T01:56:25;8.93;;;8.02;;
70205;SDS011;57593;55.896;37.396;2022-09-14T01:57:08;9.70;;;8.23;;
70205;SDS011;57593;55.896;37.396;2022-09-14T01:57:44;8.23;;;7.43;;
70205;SDS011;57593;55.896;37.396;2022-09-14T01:59:26;8.85;;;7.93;;
70205;SDS011;57593;55.896;37.396;2022-09-14T02:00:00;8.60;;;7.10;;
70205;SDS011;57593;55.896;37.396;2022-09-14T02:00:39;9.15;;;7.82;;
70205;SDS011;57593;55.896;37.396;2022-09-14T02:01:19;9.27;;;8.38;;
70205;SDS011;57593;55.896;37.396;2022-09-14T02:01:59;11.30;;;8.65;;
70205;SDS011;57593;55.896;37.396;2022-09-14T02:02:39;10.32;;;7.45;;
70205;SDS011;57593;55.896;37.396;2022-09-14T02:03:20;9.65;;;7.68;;
70205;SDS011;57593;55.896;37.396;2022-09-14T02:03:56;8.77;;;7.28;;
70205;SDS011;57593;55.896;37.396;2022-09-14T02:04:51;8.85;;;7.93;;
70205;SDS011;57593;55.896;37.396;2022-09-14T02:05:32;7.22;;;6.53;;
70205;SDS011;57593;55.896;37.396;2022-09-14T02:06:12;9.57;;;7.20;;
70205;SDS011;57593;55.896;37.396;2022-09-14T02:06:53;9.20;;;7.28;;
70205;SDS011;57593;55.896;37.396;2022-09-14T02:07:25;9.60;;;7.75;;
70205;SDS011;57593;55.896;37.396;2022-09-14T02:07:56;8.18;;;7.35;;
70205;SDS011;57593;55.896;37.396;2022-09-14T02:08:28;8.23;;;7.40;;
70205;SDS011;57593;55.896;37.396;2022-09-14T02:08:59;8.75;;;7.85;;
70205;SDS011;57593;55.896;37.396;2022-09-14T02:09:31;10.57;;;8.18;;
70205;SDS011;57593;55.896;37.396;2022-09-14T02:10:02;10.05;;;7.95;;
70205;SDS011;57593;55.896;37.396;2022-09-14T02:10:36;8.60;;;7.78;;
70205;SDS011;57593;55.896;37.396;2022-09-14T02:11:07;8.95;;;7.70;;
70205;SDS011;57593;55.896;37.396;2022-09-14T02:11:38;9.10;;;7.45;;
70205;SDS011;57593;55.896;37.396;2022-09-14T02:12:09;8.80;;;7.53;;
70205;SDS011;57593;55.896;37.396;2022-09-14T02:12:40;9.88;;;8.15;;
70205;SDS011;57593;55.896;37.396;2022-09-14T02:13:13;10.13;;;7.65;;
70205;SDS011;57593;55.896;37.396;2022-09-14T02:13:43;7.88;;;7.15;;
70205;SDS011;57593;55.896;37.396;2022-09-14T02:14:14;8.77;;;6.95;;
70205;SDS011;57593;55.896;37.396;2022-09-14T02:14:45;7.97;;;7.18;;
70205;SDS011;57593;55.896;37.396;2022-09-14T02:15:16;9.88;;;7.03;;
70205;SDS011;57593;55.896;37.396;2022-09-14T02:15:47;8.07;;;7.13;;
70205;SDS011;57593;55.896;37.396;2022-09-14T02:16:18;7.85;;;7.05;;
70205;SDS011;57593;55.896;37.396;2022-09-14T02:16:50;8.82;;;7.50;;
70205;SDS011;57593;55.896;37.396;2022-09-14T02:17:21;7.68;;;6.88;;
70205;SDS011;57593;55.896;37.396;2022-09-14T02:17:52;7.28;;;6.43;;
70205;SDS011;57593;55.896;37.396;2022-09-14T02:18:24;9.43;;;7.45;;
70205;SDS011;57593;55.896;37.396;2022-09-14T02:18:54;7.93;;;7.10;;
70205;SDS011;57593;55.896;37.396;2022-09-14T02:19:25;10.07;;;7.45;;
70205;SDS011;57593;55.896;37.396;2022-09-14T02:20:03;8.35;;;7.55;;
70205;SDS011;57593;55.896;37.396;2022-09-14T02:21:34;7.63;;;6.82;;
70205;SDS011;57593;55.896;37.396;2022-09-14T02:22:05;12.23;;;6.53;;
70205;SDS011;57593;55.896;37.396;2022-09-14T02:22:35;8.82;;;6.72;;
70205;SDS011;57593;55.896;37.396;2022-09-14T02:23:06;7.35;;;6.53;;
70205;SDS011;57593;55.896;37.396;2022-09-14T02:23:38;9.25;;;6.30;;
70205;SDS011;57593;55.896;37.396;2022-09-14T02:24:09;7.20;;;6.50;;
70205;SDS011;57593;55.896;37.396;2022-09-14T02:24:40;8.65;;;6.68;;
70205;SDS011;57593;55.896;37.396;2022-09-14T02:25:11;7.60;;;5.97;;
70205;SDS011;57593;55.896;37.396;2022-09-14T02:25:41;6.75;;;5.93;;
70205;SDS011;57593;55.896;37.396;2022-09-14T02:26:12;7.93;;;6.68;;
70205;SDS011;57593;55.896;37.396;2022-09-14T02:26:43;7.43;;;6.07;;
70205;SDS011;57593;55.896;37.396;2022-09-14T02:27:19;7.75;;;6.05;;
70205;SDS011;57593;55.896;37.396;2022-09-14T02:27:50;7.18;;;6.47;;
70205;SDS011;57593;55.896;37.396;2022-09-14T02:28:21;8.75;;;6.15;;
70205;SDS011;57593;55.896;37.396;2022-09-14T02:28:52;7.45;;;6.53;;
70205;SDS011;57593;55.896;37.396;2022-09-14T02:29:25;7.93;;;6.47;;
70205;SDS011;57593;55.896;37.396;2022-09-14T02:29:56;7.38;;;6.32;;
70205;SDS011;57593;55.896;37.396;2022-09-14T02:30:27;5.47;;;4.97;;
70205;SDS011;57593;55.896;37.396;2022-09-14T02:38:13;7.13;;;5.57;;
70205;SDS011;57593;55.896;37.396;2022-09-14T02:39:19;6.53;;;5.60;;
70205;SDS011;57593;55.896;37.396;2022-09-14T02:40:12;8.07;;;6.00;;
70205;SDS011;57593;55.896;37.396;2022-09-14T02:40:57;8.13;;;6.20;;
70205;SDS011;57593;55.896;37.396;2022-09-14T02:43:11;7.00;;;5.90;;
70205;SDS011;57593;55.896;37.396;2022-09-14T02:44:05;8.18;;;6.07;;
70205;SDS011;57593;55.896;37.396;2022-09-14T02:47:16;7.25;;;5.70;;
70205;SDS011;57593;55.896;37.396;2022-09-14T02:48:11;6.65;;;5.53;;
70205;SDS011;57593;55.896;37.396;2022-09-14T02:51:29;7.10;;;5.47;;
70205;SDS011;57593;55.896;37.396;2022-09-14T02:52:58;8.52;;;5.93;;
70205;SDS011;57593;55.896;37.396;2022-09-14T02:53:46;7.18;;;5.80;;
70205;SDS011;57593;55.896;37.396;2022-09-14T02:54:45;7.50;;;6.22;;
70205;SDS011;57593;55.896;37.396;2022-09-14T02:55:22;6.43;;;5.50;;
70205;SDS011;57593;55.896;37.396;2022-09-14T02:55:59;8.90;;;6.00;;
70205;SDS011;57593;55.896;37.396;2022-09-14T02:56:35;8.93;;;6.57;;
70205;SDS011;57593;55.896;37.396;2022-09-14T02:57:06;7.57;;;6.00;;
70205;SDS011;57593;55.896;37.396;2022-09-14T02:58:39;9.15;;;6.80;;
70205;SDS011;57593;55.896;37.396;2022-09-14T02:59:11;7.35;;;6.05;;
70205;SDS011;57593;55.896;37.396;2022-09-14T02:59:45;7.47;;;6.32;;
70205;SDS011;57593;55.896;37.396;2022-09-14T03:00:15;9.52;;;6.70;;
70205;SDS011;57593;55.896;37.396;2022-09-14T03:00:47;7.38;;;6.40;;
70205;SDS011;57593;55.896;37.396;2022-09-14T03:01:20;9.90;;;6.45;;
70205;SDS011;57593;55.896;37.396;2022-09-14T03:01:51;8.43;;;7.07;;
70205;SDS011;57593;55.896;37.396;2022-09-14T03:02:22;9.20;;;6.05;;
70205;SDS011;57593;55.896;37.396;2022-09-14T03:02:53;7.30;;;6.25;;
70205;SDS011;57593;55.896;37.396;2022-09-14T03:03:24;7.70;;;6.22;;
70205;SDS011;57593;55.896;37.396;2022-09-14T03:03:55;8.40;;;6.50;;
70205;SDS011;57593;55.896;37.396;2022-09-14T03:04:26;8.70;;;6.93;;
70205;SDS011;57593;55.896;37.396;2022-09-14T03:04:57;8.35;;;6.28;;
70205;SDS011;57593;55.896;37.396;2022-09-14T03:05:27;8.02;;;5.85;;
70205;SDS011;57593;55.896;37.396;2022-09-14T03:05:58;7.10;;;6.00;;
70205;SDS011;57593;55.896;37.396;2022-09-14T03:06:29;6.85;;;5.93;;
70205;SDS011;57593;55.896;37.396;2022-09-14T03:07:00;9.63;;;6.53;;
70205;SDS011;57593;55.896;37.396;2022-09-14T03:07:30;8.00;;;6.40;;
70205;SDS011;57593;55.896;37.396;2022-09-14T03:08:01;7.10;;;6.40;;
70205;SDS011;57593;55.896;37.396;2022-09-14T03:08:33;8.52;;;6.40;;
70205;SDS011;57593;55.896;37.396;2022-09-14T03:09:05;7.05;;;6.35;;
70205;SDS011;57593;55.896;37.396;2022-09-14T03:09:35;6.18;;;5.57;;
70205;SDS011;57593;55.896;37.396;2022-09-14T03:10:06;7.30;;;5.80;;
70205;SDS011;57593;55.896;37.396;2022-09-14T03:10:37;6.70;;;6.03;;
70205;SDS011;57593;55.896;37.396;2022-09-14T03:11:11;10.65;;;6.50;;
70205;SDS011;57593;55.896;37.396;2022-09-14T03:11:42;8.23;;;6.07;;
70205;SDS011;57593;55.896;37.396;2022-09-14T03:12:13;8.00;;;6.15;;
70205;SDS011;57593;55.896;37.396;2022-09-14T03:12:43;7.88;;;5.85;;
70205;SDS011;57593;55.896;37.396;2022-09-14T03:13:14;6.15;;;5.55;;
70205;SDS011;57593;55.896;37.396;2022-09-14T03:13:45;6.35;;;5.75;;
70205;SDS011;57593;55.896;37.396;2022-09-14T03:14:16;8.48;;;5.90;;
70205;SDS011;57593;55.896;37.396;2022-09-14T03:14:46;7.78;;;5.97;;
70205;SDS011;57593;55.896;37.396;2022-09-14T03:15:17;7.22;;;6.07;;
70205;SDS011;57593;55.896;37.396;2022-09-14T03:15:48;7.25;;;6.15;;
70205;SDS011;57593;55.896;37.396;2022-09-14T03:16:18;7.93;;;5.85;;
70205;SDS011;57593;55.896;37.396;2022-09-14T03:16:49;6.05;;;5.45;;
70205;SDS011;57593;55.896;37.396;2022-09-14T03:17:19;6.65;;;5.90;;
70205;SDS011;57593;55.896;37.396;2022-09-14T03:17:50;6.80;;;6.00;;
70205;SDS011;57593;55.896;37.396;2022-09-14T03:18:21;8.02;;;5.78;;
70205;SDS011;57593;55.896;37.396;2022-09-14T03:18:52;7.00;;;5.70;;
70205;SDS011;57593;55.896;37.396;2022-09-14T03:19:22;8.30;;;5.50;;
70205;SDS011;57593;55.896;37.396;2022-09-14T03:19:53;8.07;;;6.07;;
70205;SDS011;57593;55.896;37.396;2022-09-14T03:20:24;6.68;;;5.78;;
70205;SDS011;57593;55.896;37.396;2022-09-14T03:21:02;6.80;;;6.10;;
70205;SDS011;57593;55.896;37.396;2022-09-14T03:21:37;7.88;;;5.85;;
70205;SDS011;57593;55.896;37.396;2022-09-14T03:22:09;6.38;;;5.55;;
70205;SDS011;57593;55.896;37.396;2022-09-14T03:22:39;6.60;;;5.57;;
70205;SDS011;57593;55.896;37.396;2022-09-14T03:23:10;7.03;;;6.00;;
70205;SDS011;57593;55.896;37.396;2022-09-14T03:23:42;7.88;;;6.13;;
70205;SDS011;57593;55.896;37.396;2022-09-14T03:24:15;11.98;;;7.57;;
70205;SDS011;57593;55.896;37.396;2022-09-14T03:24:45;9.68;;;6.80;;
70205;SDS011;57593;55.896;37.396;2022-09-14T03:25:16;7.90;;;6.47;;
70205;SDS011;57593;55.896;37.396;2022-09-14T03:25:52;7.55;;;6.57;;
70205;SDS011;57593;55.896;37.396;2022-09-14T03:26:23;6.65;;;5.95;;
70205;SDS011;57593;55.896;37.396;2022-09-14T03:26:55;7.45;;;6.15;;
70205;SDS011;57593;55.896;37.396;2022-09-14T03:27:25;9.25;;;6.07;;
70205;SDS011;57593;55.896;37.396;2022-09-14T03:27:57;6.75;;;5.75;;
70205;SDS011;57593;55.896;37.396;2022-09-14T03:28:29;9.68;;;6.43;;
70205;SDS011;57593;55.896;37.396;2022-09-14T03:29:00;7.25;;;6.28;;
70205;SDS011;57593;55.896;37.396;2022-09-14T03:29:30;9.20;;;6.57;;
70205;SDS011;57593;55.896;37.396;2022-09-14T03:30:01;7.22;;;6.30;;
70205;SDS011;57593;55.896;37.396;2022-09-14T03:30:33;6.75;;;5.30;;
70205;SDS011;57593;55.896;37.396;2022-09-14T03:31:05;7.07;;;6.38;;
70205;SDS011;57593;55.896;37.396;2022-09-14T03:31:37;8.52;;;6.05;;
70205;SDS011;57593;55.896;37.396;2022-09-14T03:32:07;7.28;;;6.00;;
70205;SDS011;57593;55.896;37.396;2022-09-14T03:32:40;6.60;;;5.93;;
70205;SDS011;57593;55.896;37.396;2022-09-14T03:33:10;9.27;;;5.97;;
70205;SDS011;57593;55.896;37.396;2022-09-14T03:33:42;8.13;;;5.97;;
70205;SDS011;57593;55.896;37.396;2022-09-14T03:34:13;8.95;;;6.30;;
70205;SDS011;57593;55.896;37.396;2022-09-14T03:34:44;6.78;;;6.07;;
70205;SDS011;57593;55.896;37.396;2022-09-14T03:35:34;7.82;;;5.85;;
70205;SDS011;57593;55.896;37.396;2022-09-14T03:36:12;7.40;;;5.70;;
70205;SDS011;57593;55.896;37.396;2022-09-14T03:36:45;6.55;;;5.68;;
70205;SDS011;57593;55.896;37.396;2022-09-14T03:37:15;6.63;;;5.97;;
70205;SDS011;57593;55.896;37.396;2022-09-14T03:37:46;10.30;;;6.93;;
70205;SDS011;57593;55.896;37.396;2022-09-14T03:38:17;8.55;;;6.10;;
70205;SDS011;57593;55.896;37.396;2022-09-14T03:38:49;6.63;;;5.85;;
70205;SDS011;57593;55.896;37.396;2022-09-14T03:39:21;7.72;;;6.30;;
70205;SDS011;57593;55.896;37.396;2022-09-14T03:39:52;8.05;;;6.07;;
70205;SDS011;57593;55.896;37.396;2022-09-14T03:40:22;7.55;;;5.93;;
70205;SDS011;57593;55.896;37.396;2022-09-14T03:40:53;7.40;;;5.88;;
70205;SDS011;57593;55.896;37.396;2022-09-14T03:41:25;7.70;;;5.75;;
70205;SDS011;57593;55.896;37.396;2022-09-14T03:41:55;7.65;;;5.90;;
70205;SDS011;57593;55.896;37.396;2022-09-14T03:42:26;8.82;;;6.43;;
70205;SDS011;57593;55.896;37.396;2022-09-14T03:42:57;6.93;;;6.22;;
70205;SDS011;57593;55.896;37.396;2022-09-14T03:43:27;8.02;;;5.97;;
70205;SDS011;57593;55.896;37.396;2022-09-14T03:43:58;9.00;;;6.97;;
70205;SDS011;57593;55.896;37.396;2022-09-14T03:44:28;8.82;;;6.55;;
70205;SDS011;57593;55.896;37.396;2022-09-14T03:44:59;8.90;;;5.70;;
70205;SDS011;57593;55.896;37.396;2022-09-14T03:45:30;8.90;;;6.50;;
70205;SDS011;57593;55.896;37.396;2022-09-14T03:46:04;9.23;;;6.45;;
70205;SDS011;57593;55.896;37.396;2022-09-14T03:46:40;9.15;;;6.40;;
70205;SDS011;57593;55.896;37.396;2022-09-14T03:47:10;9.70;;;6.05;;
70205;SDS011;57593;55.896;37.396;2022-09-14T03:47:41;6.88;;;5.88;;
70205;SDS011;57593;55.896;37.396;2022-09-14T03:48:12;7.95;;;6.20;;
70205;SDS011;57593;55.896;37.396;2022-09-14T03:48:44;7.07;;;6.30;;
70205;SDS011;57593;55.896;37.396;2022-09-14T03:49:16;9.70;;;6.60;;
70205;SDS011;57593;55.896;37.396;2022-09-14T03:49:46;7.22;;;6.50;;
70205;SDS011;57593;55.896;37.396;2022-09-14T03:50:17;7.32;;;6.18;;
70205;SDS011;57593;55.896;37.396;2022-09-14T03:50:49;6.75;;;5.88;;
70205;SDS011;57593;55.896;37.396;2022-09-14T03:51:19;6.63;;;6.00;;
70205;SDS011;57593;55.896;37.396;2022-09-14T03:51:50;7.55;;;6.38;;
70205;SDS011;57593;55.896;37.396;2022-09-14T03:52:21;11.65;;;6.70;;
70205;SDS011;57593;55.896;37.396;2022-09-14T03:52:51;10.23;;;6.75;;
70205;SDS011;57593;55.896;37.396;2022-09-14T03:53:22;7.63;;;6.28;;
70205;SDS011;57593;55.896;37.396;2022-09-14T03:53:52;8.70;;;6.97;;
70205;SDS011;57593;55.896;37.396;2022-09-14T03:54:23;9.32;;;7.05;;
70205;SDS011;57593;55.896;37.396;2022-09-14T03:54:54;8.63;;;6.75;;
70205;SDS011;57593;55.896;37.396;2022-09-14T03:55:24;12.23;;;6.53;;
70205;SDS011;57593;55.896;37.396;2022-09-14T03:55:55;8.30;;;6.65;;